Time;durP1;ratioP1;P1;durP2;ratioP2;P2;SDS_P1;SDS_P2;PMS_P1;PMS_P2;Temp;Humidity;BMP_temperature;BMP_pressure;BME280_temperature;BME280_humidity;BME280_pressure;Samples;Min_cycle;Max_cycle;Signal;HPM_P1;HPM_P2
2024/01/10 00:00:04;;;;;;;23.55;12.13;;;-3.60;99.90;;;;;;5101403;28;20050;-66
2024/01/10 00:02:30;;;;;;;24.75;12.88;;;-2.40;99.90;;;;;;5102554;28;20181;-66
2024/01/10 00:04:56;;;;;;;25.17;12.80;;;-3.60;99.90;;;;;;5084803;28;20153;-65
2024/01/10 00:07:21;;;;;;;20.92;12.13;;;-3.60;99.90;;;;;;5101000;28;20055;-65
2024/01/10 00:09:48;;;;;;;26.02;13.23;;;-3.60;99.90;;;;;;5102779;28;20623;-66
2024/01/10 00:12:14;;;;;;;26.13;13.60;;;-3.20;99.90;;;;;;5103886;28;20051;-66
2024/01/10 00:14:40;;;;;;;31.52;13.85;;;-3.20;99.90;;;;;;5102516;28;20038;-66
2024/01/10 00:17:07;;;;;;;23.20;12.93;;;-3.60;99.90;;;;;;5083084;28;20055;-65
2024/01/10 00:19:33;;;;;;;25.70;13.15;;;-2.10;99.90;;;;;;5084239;28;20396;-66
2024/01/10 00:21:59;;;;;;;27.35;13.60;;;-3.60;99.90;;;;;;5101462;28;20051;-66
2024/01/10 00:24:26;;;;;;;23.55;12.38;;;-2.10;99.90;;;;;;5100133;28;20036;-66
2024/01/10 00:26:52;;;;;;;25.35;12.38;;;-3.60;99.90;;;;;;5086392;28;20286;-68
2024/01/10 00:29:18;;;;;;;24.23;12.65;;;-3.70;99.90;;;;;;5104552;28;20043;-66
2024/01/10 00:31:44;;;;;;;22.95;12.50;;;-3.70;99.90;;;;;;5101389;28;20046;-66
2024/01/10 00:34:09;;;;;;;23.92;12.25;;;-3.60;99.90;;;;;;5084087;28;20578;-65
2024/01/10 00:36:35;;;;;;;22.33;12.02;;;-3.40;99.90;;;;;;5101872;28;20100;-65
2024/01/10 00:39:02;;;;;;;21.00;12.07;;;-3.70;99.90;;;;;;5082582;28;20086;-65
2024/01/10 00:41:28;;;;;;;25.30;12.52;;;-3.70;99.90;;;;;;5102147;28;20073;-65
2024/01/10 00:43:53;;;;;;;22.13;12.15;;;-3.70;99.90;;;;;;5099291;28;20043;-65
2024/01/10 00:46:20;;;;;;;21.13;12.30;;;-3.70;99.90;;;;;;5084518;28;20036;-66
2024/01/10 00:48:46;;;;;;;25.67;13.13;;;-3.80;99.90;;;;;;5101113;28;20093;-66
2024/01/10 00:51:12;;;;;;;25.25;13.35;;;-3.80;99.90;;;;;;5083926;28;20472;-66
2024/01/10 00:53:42;;;;;;;23.27;12.15;;;-3.80;99.90;;;;;;5083453;28;20048;-65
2024/01/10 00:56:08;;;;;;;26.38;13.60;;;-3.90;99.90;;;;;;5103280;28;20124;-65
2024/01/10 00:58:35;;;;;;;24.92;12.65;;;-3.80;99.90;;;;;;5084414;28;20492;-65
2024/01/10 01:01:01;;;;;;;23.92;12.70;;;-3.90;99.90;;;;;;5100637;28;20054;-65
2024/01/10 01:03:27;;;;;;;24.58;12.25;;;-3.30;99.90;;;;;;5084554;28;20790;-65
2024/01/10 01:05:54;;;;;;;24.20;13.93;;;-3.90;99.90;;;;;;5104421;28;20070;-66
2024/01/10 01:08:20;;;;;;;24.73;12.90;;;-4.00;99.90;;;;;;5105788;28;20552;-65
2024/01/10 01:10:46;;;;;;;26.75;12.65;;;-3.10;99.90;;;;;;5106959;28;20058;-66
2024/01/10 01:13:12;;;;;;;24.35;13.23;;;-4.10;99.90;;;;;;5084596;28;20147;-65
2024/01/10 01:15:38;;;;;;;28.83;13.10;;;-4.10;99.90;;;;;;5104670;28;20097;-65
2024/01/10 01:18:05;;;;;;;26.52;14.80;;;-4.20;99.90;;;;;;5100733;28;20446;-65
2024/01/10 01:20:32;;;;;;;25.02;13.63;;;-4.30;99.90;;;;;;5089102;28;20077;-65
2024/01/10 01:22:58;;;;;;;27.67;13.82;;;-4.30;99.90;;;;;;5104139;28;20052;-66
2024/01/10 01:25:24;;;;;;;27.08;14.02;;;-4.30;99.90;;;;;;5106083;28;20036;-65
2024/01/10 01:27:53;;;;;;;24.90;12.45;;;-4.30;99.90;;;;;;5104741;28;20123;-65
2024/01/10 01:30:21;;;;;;;28.20;14.32;;;-4.30;99.90;;;;;;5105611;28;20504;-65
2024/01/10 01:32:47;;;;;;;29.85;14.15;;;-3.90;99.90;;;;;;5102524;28;20585;-66
2024/01/10 01:35:13;;;;;;;26.67;14.45;;;-4.40;99.90;;;;;;5086698;28;20090;-65
2024/01/10 01:37:39;;;;;;;26.77;14.15;;;-4.40;99.90;;;;;;5104028;28;20028;-66
2024/01/10 01:40:06;;;;;;;25.65;14.27;;;-4.40;99.90;;;;;;5104265;28;20043;-65
2024/01/10 01:42:32;;;;;;;28.20;15.10;;;-4.40;99.90;;;;;;5105442;28;20117;-66
2024/01/10 01:44:59;;;;;;;27.38;13.63;;;-4.40;99.90;;;;;;5103626;28;20047;-66
2024/01/10 01:47:27;;;;;;;27.02;13.98;;;-4.40;99.90;;;;;;5105431;28;20047;-66
2024/01/10 01:49:53;;;;;;;29.50;15.63;;;-4.40;99.90;;;;;;5084822;28;21038;-66
2024/01/10 01:52:19;;;;;;;29.02;14.80;;;-4.40;99.90;;;;;;5083866;28;20055;-66
2024/01/10 01:54:47;;;;;;;31.52;16.13;;;-4.40;99.90;;;;;;5117602;27;20044;-65
2024/01/10 01:57:14;;;;;;;30.17;16.58;;;-4.40;99.90;;;;;;5103092;28;20043;-65
2024/01/10 01:59:40;;;;;;;28.92;15.23;;;-4.40;99.90;;;;;;5106823;28;20446;-66
2024/01/10 02:02:07;;;;;;;30.25;16.63;;;-4.40;99.90;;;;;;5087792;28;20114;-66
2024/01/10 02:04:33;;;;;;;31.73;16.92;;;-3.60;99.90;;;;;;5103844;28;20055;-66
2024/01/10 02:07:01;;;;;;;32.10;16.48;;;-4.50;99.90;;;;;;5089090;28;20118;-66
2024/01/10 02:09:27;;;;;;;34.65;18.15;;;-3.00;99.90;;;;;;5088596;28;20074;-66
2024/01/10 02:11:54;;;;;;;32.50;16.85;;;-5.20;99.90;;;;;;5104246;28;20039;-66
2024/01/10 02:14:21;;;;;;;33.40;17.83;;;-3.90;99.90;;;;;;5101947;28;20043;-66
2024/01/10 02:16:47;;;;;;;34.83;18.02;;;-4.50;99.90;;;;;;5086218;28;20043;-62
2024/01/10 02:19:23;;;;;;;33.97;17.30;;;-3.30;99.90;;;;;;5106322;28;20062;-62
2024/01/10 02:21:51;;;;;;;36.60;17.88;;;-4.50;99.90;;;;;;5101780;28;20051;-62
2024/01/10 02:24:17;;;;;;;35.47;19.05;;;-4.50;99.90;;;;;;5101777;28;20083;-62
2024/01/10 02:26:43;;;;;;;32.85;18.38;;;-4.50;99.90;;;;;;5088140;28;20040;-62
2024/01/10 02:29:09;;;;;;;36.40;19.00;;;-4.50;99.90;;;;;;5101927;28;20194;-62
2024/01/10 02:31:35;;;;;;;36.03;19.08;;;-4.50;99.90;;;;;;5087851;28;20406;-62
2024/01/10 02:34:01;;;;;;;38.03;20.20;;;-3.40;99.90;;;;;;5103408;28;20040;-62
2024/01/10 02:36:27;;;;;;;33.30;18.40;;;-4.40;99.90;;;;;;5087906;28;20035;-62
2024/01/10 02:38:53;;;;;;;34.92;19.05;;;-4.50;99.90;;;;;;5087630;28;20080;-62
2024/01/10 02:41:20;;;;;;;36.08;19.40;;;-4.50;99.90;;;;;;5101804;28;20194;-62
2024/01/10 02:43:47;;;;;;;32.90;18.73;;;-4.50;99.90;;;;;;5087156;28;20093;-62
2024/01/10 02:46:13;;;;;;;36.08;18.58;;;-3.30;99.90;;;;;;5086673;28;20043;-62
2024/01/10 02:48:39;;;;;;;37.80;18.02;;;-4.50;99.90;;;;;;5087249;28;20040;-61
2024/01/10 02:51:05;;;;;;;34.65;17.73;;;-3.10;99.90;;;;;;5087034;28;20175;-61
2024/01/10 02:53:31;;;;;;;35.92;17.83;;;-4.50;99.90;;;;;;5103774;28;20073;-62
2024/01/10 02:55:57;;;;;;;36.25;18.08;;;-4.50;99.90;;;;;;5086895;28;20062;-62
2024/01/10 02:58:25;;;;;;;36.65;17.60;;;-4.60;99.90;;;;;;5104458;28;20043;-62
2024/01/10 03:00:51;;;;;;;32.17;17.40;;;-4.50;99.90;;;;;;5103246;28;20120;-62
2024/01/10 03:03:17;;;;;;;33.50;17.55;;;-4.50;99.90;;;;;;5086843;28;20066;-62
2024/01/10 03:05:43;;;;;;;32.13;16.35;;;-4.50;99.90;;;;;;5102498;28;20093;-62
2024/01/10 03:08:09;;;;;;;31.48;16.95;;;-4.60;99.90;;;;;;5105440;28;20124;-62
2024/01/10 03:10:35;;;;;;;34.22;17.27;;;-4.60;99.90;;;;;;5103789;28;20575;-62
2024/01/10 03:13:01;;;;;;;32.88;17.40;;;-4.60;99.90;;;;;;5102974;28;20047;-62
2024/01/10 03:15:27;;;;;;;31.55;15.98;;;-4.60;99.90;;;;;;5102839;28;20044;-62
2024/01/10 03:17:53;;;;;;;32.47;16.55;;;-4.60;99.90;;;;;;5087121;28;20047;-62
2024/01/10 03:20:19;;;;;;;34.08;16.73;;;-4.50;99.90;;;;;;5070157;28;20078;-62
2024/01/10 03:22:45;;;;;;;32.25;16.77;;;-4.50;99.90;;;;;;5101460;28;20068;-62
2024/01/10 03:25:11;;;;;;;33.92;17.58;;;-2.60;99.90;;;;;;5100607;28;20687;-62
2024/01/10 03:27:37;;;;;;;30.98;15.65;;;-4.50;99.90;;;;;;5104694;28;20108;-62
2024/01/10 03:30:04;;;;;;;32.72;16.48;;;-4.50;99.90;;;;;;5083887;28;20077;-62
2024/01/10 03:32:29;;;;;;;33.55;16.45;;;-4.50;99.90;;;;;;5104207;28;20042;-62
2024/01/10 03:34:55;;;;;;;31.33;16.35;;;-4.50;99.90;;;;;;5103030;28;20039;-62
2024/01/10 03:37:21;;;;;;;32.28;16.30;;;-4.50;99.90;;;;;;5103958;28;20044;-63
2024/01/10 03:39:47;;;;;;;32.42;15.45;;;-4.20;99.90;;;;;;5102815;28;20100;-62
2024/01/10 03:42:12;;;;;;;31.08;16.00;;;-4.50;99.90;;;;;;5104572;28;20043;-62
2024/01/10 03:44:38;;;;;;;32.03;16.65;;;-4.50;99.90;;;;;;5101381;28;20031;-62
2024/01/10 03:47:05;;;;;;;31.88;16.70;;;-4.50;99.90;;;;;;5101904;28;22388;-62
2024/01/10 03:49:31;;;;;;;30.45;15.82;;;-3.50;99.90;;;;;;5100970;28;20039;-62
2024/01/10 03:51:57;;;;;;;33.63;15.70;;;-4.50;99.90;;;;;;5104016;28;20108;-62
2024/01/10 03:54:23;;;;;;;29.67;15.70;;;-4.50;99.90;;;;;;5102773;28;20093;-62
2024/01/10 03:56:49;;;;;;;27.95;15.05;;;-4.20;99.90;;;;;;5086457;28;20047;-62
2024/01/10 03:59:15;;;;;;;27.92;14.35;;;-2.50;99.90;;;;;;5101974;28;20050;-63
2024/01/10 04:01:41;;;;;;;28.80;15.18;;;-4.60;99.90;;;;;;5102848;28;20044;-63
2024/01/10 04:04:07;;;;;;;27.77;14.90;;;-4.60;99.90;;;;;;5101862;28;20128;-63
2024/01/10 04:06:34;;;;;;;26.77;14.38;;;-4.60;99.90;;;;;;5103402;28;20105;-63
2024/01/10 04:09:01;;;;;;;26.98;14.18;;;-4.60;99.90;;;;;;5103090;28;20069;-63
2024/01/10 04:11:26;;;;;;;27.25;15.07;;;-4.60;99.90;;;;;;5085121;28;20088;-63
2024/01/10 04:13:53;;;;;;;30.55;14.38;;;-4.60;99.90;;;;;;5085110;28;20517;-63
2024/01/10 04:16:19;;;;;;;26.73;13.57;;;-4.60;99.90;;;;;;5103190;28;20079;-63
2024/01/10 04:18:44;;;;;;;24.80;13.50;;;-4.60;99.90;;;;;;5102422;28;20135;-63
2024/01/10 04:21:11;;;;;;;25.58;12.82;;;-4.00;99.90;;;;;;5103463;28;20519;-61
2024/01/10 04:23:38;;;;;;;24.98;13.13;;;-4.60;99.90;;;;;;5101905;28;20570;-61
2024/01/10 04:26:04;;;;;;;20.55;10.85;;;-4.60;99.90;;;;;;5100428;28;20047;-63
2024/01/10 04:28:30;;;;;;;22.90;11.95;;;-3.90;99.90;;;;;;5102862;28;20142;-63
2024/01/10 04:30:56;;;;;;;21.08;11.10;;;-4.60;99.90;;;;;;5103500;28;20551;-62
2024/01/10 04:33:22;;;;;;;21.80;12.30;;;-4.60;99.90;;;;;;5102185;28;20039;-63
2024/01/10 04:35:48;;;;;;;22.88;11.20;;;-4.60;99.90;;;;;;5102675;28;20051;-63
2024/01/10 04:38:14;;;;;;;24.00;12.63;;;-4.10;99.90;;;;;;5103326;28;20122;-62
2024/01/10 04:40:40;;;;;;;25.85;12.90;;;-4.50;99.90;;;;;;5090088;28;20046;-63
2024/01/10 04:43:06;;;;;;;24.27;12.95;;;-4.50;99.90;;;;;;5107057;28;20039;-62
2024/01/10 04:45:31;;;;;;;27.23;13.00;;;-4.50;99.90;;;;;;5109154;28;20047;-60
2024/01/10 04:47:57;;;;;;;28.70;13.93;;;-4.00;99.90;;;;;;5108314;28;20044;-60
2024/01/10 04:50:23;;;;;;;23.83;12.73;;;-4.50;99.90;;;;;;5090281;28;20051;-60
2024/01/10 04:52:49;;;;;;;24.90;12.60;;;-4.50;99.90;;;;;;5107420;28;20058;-61
2024/01/10 04:55:15;;;;;;;23.48;12.85;;;-4.50;99.90;;;;;;5108235;28;20118;-61
2024/01/10 04:57:42;;;;;;;25.67;13.50;;;-4.50;99.90;;;;;;5108378;28;20043;-61
2024/01/10 05:00:08;;;;;;;24.27;13.30;;;-4.50;99.90;;;;;;5076018;28;20521;-61
2024/01/10 05:02:35;;;;;;;23.63;12.80;;;-4.50;99.90;;;;;;5107448;28;20043;-62
2024/01/10 05:05:00;;;;;;;26.73;12.65;;;-4.20;99.90;;;;;;5106629;28;20035;-61
2024/01/10 05:07:26;;;;;;;25.88;12.43;;;-4.50;99.90;;;;;;5108172;28;20130;-62
2024/01/10 05:09:52;;;;;;;23.83;11.68;;;-4.50;99.90;;;;;;5092347;28;20130;-62
2024/01/10 05:12:18;;;;;;;25.83;12.73;;;-5.40;99.90;;;;;;5106962;27;20050;-62
2024/01/10 05:14:44;;;;;;;26.25;12.85;;;-2.90;99.90;;;;;;5103865;27;20134;-62
2024/01/10 05:17:11;;;;;;;26.80;12.55;;;-4.50;99.90;;;;;;5109003;28;20043;-62
2024/01/10 05:19:38;;;;;;;24.50;11.48;;;-4.40;99.90;;;;;;5085456;27;20050;-62
2024/01/10 05:22:04;;;;;;;24.58;12.68;;;-4.40;99.90;;;;;;5089686;28;20100;-62
2024/01/10 05:24:30;;;;;;;25.38;11.77;;;-4.30;99.90;;;;;;5106842;28;20050;-62
2024/01/10 05:26:57;;;;;;;27.38;13.93;;;-4.20;99.90;;;;;;5106399;28;20411;-62
2024/01/10 05:29:24;;;;;;;22.98;12.05;;;-4.40;99.90;;;;;;5108443;27;20047;-62
2024/01/10 05:31:50;;;;;;;26.77;12.50;;;-4.50;99.90;;;;;;5090637;28;20035;-61
2024/01/10 05:34:16;;;;;;;24.23;12.20;;;-4.40;99.90;;;;;;5107683;28;20043;-62
2024/01/10 05:36:42;;;;;;;23.13;12.60;;;-4.40;99.90;;;;;;5108157;27;20074;-61
2024/01/10 05:39:09;;;;;;;21.85;12.20;;;-4.40;99.90;;;;;;5108299;28;20495;-62
2024/01/10 05:41:35;;;;;;;25.60;13.27;;;-2.90;99.90;;;;;;5092022;28;20496;-61
2024/01/10 05:44:00;;;;;;;21.38;11.45;;;-4.10;99.90;;;;;;5108259;28;20039;-61
2024/01/10 05:46:28;;;;;;;22.70;12.02;;;-4.40;99.90;;;;;;5089068;28;20047;-61
2024/01/10 05:48:54;;;;;;;22.83;12.77;;;-4.40;99.90;;;;;;5105367;27;20089;-62
2024/01/10 05:51:22;;;;;;;27.02;12.55;;;-2.70;99.90;;;;;;5107594;28;20032;-62
2024/01/10 05:53:49;;;;;;;26.23;12.60;;;-4.40;99.90;;;;;;5087513;28;20050;-61
2024/01/10 05:56:15;;;;;;;24.42;12.45;;;-4.40;99.90;;;;;;5106743;28;20040;-61
2024/01/10 05:58:41;;;;;;;23.90;12.27;;;-4.40;99.90;;;;;;5104453;28;20051;-61
2024/01/10 06:01:09;;;;;;;25.70;13.00;;;-4.40;99.90;;;;;;5105227;28;20047;-61
2024/01/10 06:03:36;;;;;;;24.63;12.68;;;-4.40;99.90;;;;;;5103507;28;20154;-62
2024/01/10 06:06:03;;;;;;;23.35;12.43;;;-4.40;99.90;;;;;;5104057;28;20047;-62
2024/01/10 06:08:29;;;;;;;26.73;12.20;;;-4.30;99.90;;;;;;5088208;28;20067;-62
2024/01/10 06:10:55;;;;;;;29.38;11.85;;;-4.40;99.90;;;;;;5105823;28;20120;-61
2024/01/10 06:13:21;;;;;;;23.52;12.77;;;-4.00;99.90;;;;;;5116736;27;20043;-61
2024/01/10 06:15:47;;;;;;;26.55;13.48;;;-4.40;99.90;;;;;;5100886;28;20043;-61
2024/01/10 06:18:12;;;;;;;25.17;12.40;;;-4.30;99.90;;;;;;5102471;28;20044;-62
2024/01/10 06:20:39;;;;;;;24.73;11.90;;;-4.30;99.90;;;;;;5103536;28;20538;-62
2024/01/10 06:23:05;;;;;;;25.73;13.20;;;-4.30;99.90;;;;;;5102002;28;20198;-62
2024/01/10 06:25:31;;;;;;;27.60;12.57;;;-4.30;99.90;;;;;;5106110;28;20063;-62
2024/01/10 06:27:57;;;;;;;24.00;12.63;;;-4.40;99.90;;;;;;5100811;28;20120;-61
2024/01/10 06:30:23;;;;;;;25.55;13.02;;;-4.10;99.90;;;;;;5101510;28;20487;-61
2024/01/10 06:32:49;;;;;;;27.67;13.90;;;-3.60;99.90;;;;;;5106514;28;20093;-61
2024/01/10 06:35:15;;;;;;;26.02;14.70;;;-4.40;99.90;;;;;;5105201;28;20484;-62
2024/01/10 06:37:44;;;;;;;29.75;15.32;;;-4.40;99.90;;;;;;5086596;28;20872;-62
2024/01/10 06:40:11;;;;;;;28.90;16.20;;;-4.40;99.90;;;;;;5079272;28;20525;-62
2024/01/10 06:42:38;;;;;;;33.20;16.92;;;-4.40;99.90;;;;;;5101791;28;20039;-62
2024/01/10 06:45:07;;;;;;;37.15;17.75;;;-4.40;99.90;;;;;;5084593;28;20069;-63
2024/01/10 06:47:33;;;;;;;34.30;17.92;;;-4.40;99.90;;;;;;5102040;28;20764;-62
2024/01/10 06:49:59;;;;;;;32.00;16.80;;;-4.50;99.90;;;;;;5087573;28;20044;-62
2024/01/10 06:52:26;;;;;;;32.00;17.52;;;-4.50;99.90;;;;;;5102817;28;20048;-63
2024/01/10 06:54:51;;;;;;;35.70;18.73;;;-4.50;99.90;;;;;;5082216;28;20514;-62
2024/01/10 06:57:17;;;;;;;32.53;18.42;;;-3.90;99.90;;;;;;5098948;28;20044;-62
2024/01/10 06:59:44;;;;;;;32.80;17.45;;;-4.50;99.90;;;;;;5104163;28;20043;-63
2024/01/10 07:02:09;;;;;;;35.95;18.42;;;-4.50;99.90;;;;;;5098849;28;20054;-62
2024/01/10 07:04:37;;;;;;;36.72;20.77;;;-4.60;99.90;;;;;;5085284;28;20047;-63
2024/01/10 07:07:03;;;;;;;29.80;17.38;;;-5.40;99.90;;;;;;5102402;28;20448;-63
2024/01/10 07:09:29;;;;;;;34.13;18.00;;;-4.60;99.90;;;;;;5101156;28;20070;-60
2024/01/10 07:11:55;;;;;;;35.40;18.50;;;-4.60;99.90;;;;;;5101116;28;20123;-62
2024/01/10 07:14:21;;;;;;;34.83;18.67;;;-4.60;99.90;;;;;;5104828;28;20126;-62
2024/01/10 07:16:48;;;;;;;33.83;19.45;;;-4.70;99.90;;;;;;5083997;28;20578;-62
2024/01/10 07:19:14;;;;;;;34.80;19.05;;;-4.70;99.90;;;;;;5098485;28;20050;-62
2024/01/10 07:21:41;;;;;;;35.17;19.40;;;-4.70;99.90;;;;;;5101856;28;20563;-62
2024/01/10 07:24:09;;;;;;;36.30;18.15;;;-4.70;99.90;;;;;;5086013;28;20400;-62
2024/01/10 07:26:35;;;;;;;33.10;17.02;;;-4.50;99.90;;;;;;5097324;28;20509;-62
2024/01/10 07:29:02;;;;;;;32.70;16.02;;;-4.70;99.90;;;;;;5069017;28;20126;-62
2024/01/10 07:31:29;;;;;;;32.28;16.23;;;-4.70;99.90;;;;;;5102062;28;20082;-62
2024/01/10 07:33:58;;;;;;;27.52;15.30;;;-4.70;99.90;;;;;;5090809;28;20181;-62
2024/01/10 07:36:26;;;;;;;28.52;14.95;;;-4.70;99.90;;;;;;5097399;28;21144;-62
2024/01/10 07:38:57;;;;;;;27.77;14.18;;;-4.70;99.90;;;;;;5103408;27;20039;-62
2024/01/10 07:41:23;;;;;;;30.35;14.82;;;-4.70;99.90;;;;;;5094202;28;20036;-61
2024/01/10 07:43:49;;;;;;;27.30;14.10;;;-4.70;99.90;;;;;;5101845;28;20495;-62
2024/01/10 07:46:16;;;;;;;28.05;13.18;;;-3.20;99.90;;;;;;5085423;28;20552;-62
2024/01/10 07:48:41;;;;;;;24.90;13.15;;;-4.70;99.90;;;;;;5089475;28;20039;-62
2024/01/10 07:51:07;;;;;;;27.55;12.27;;;-4.70;99.90;;;;;;5086374;28;21914;-62
2024/01/10 07:53:34;;;;;;;26.30;11.70;;;-4.70;99.90;;;;;;5094973;28;20046;-62
2024/01/10 07:56:00;;;;;;;25.85;11.80;;;-4.70;99.90;;;;;;5097646;28;20487;-62
2024/01/10 07:58:25;;;;;;;25.98;13.23;;;-4.70;99.90;;;;;;5100119;28;20084;-62
2024/01/10 08:00:51;;;;;;;27.25;13.38;;;-4.70;99.90;;;;;;5089209;28;20048;-62
2024/01/10 08:03:17;;;;;;;22.45;11.40;;;-4.70;99.90;;;;;;5086093;28;20036;-61
2024/01/10 08:05:44;;;;;;;24.08;11.68;;;-4.70;99.90;;;;;;5070937;28;20047;-62
2024/01/10 08:08:13;;;;;;;27.38;12.35;;;-4.60;99.90;;;;;;5087438;28;20077;-62
2024/01/10 08:10:39;;;;;;;23.15;12.52;;;-4.70;99.90;;;;;;5098706;28;20118;-62
2024/01/10 08:13:06;;;;;;;26.45;12.60;;;-4.60;99.90;;;;;;5086171;28;20055;-62
2024/01/10 08:15:34;;;;;;;26.15;11.73;;;-4.70;99.90;;;;;;5083957;28;20039;-61
2024/01/10 08:18:02;;;;;;;28.52;12.82;;;-4.60;99.90;;;;;;5098719;28;20097;-62
2024/01/10 08:20:28;;;;;;;27.90;11.30;;;-4.60;99.90;;;;;;5081427;28;20564;-61
2024/01/10 08:22:54;;;;;;;27.00;11.52;;;-4.60;99.90;;;;;;5099389;28;20048;-62
2024/01/10 08:25:20;;;;;;;27.35;11.30;;;-4.60;99.90;;;;;;5099449;28;20055;-62
2024/01/10 08:27:46;;;;;;;21.42;10.48;;;-4.50;99.90;;;;;;5099036;28;20187;-61
2024/01/10 08:30:12;;;;;;;29.02;11.85;;;-4.50;99.90;;;;;;5098922;28;20046;-62
2024/01/10 08:32:38;;;;;;;27.70;11.90;;;-4.50;99.90;;;;;;5089828;28;20040;-61
2024/01/10 08:35:04;;;;;;;28.38;11.52;;;-4.40;99.90;;;;;;5095667;28;20036;-62
2024/01/10 08:37:30;;;;;;;24.52;10.70;;;-4.40;99.90;;;;;;5074522;28;20051;-63
2024/01/10 08:39:57;;;;;;;25.80;11.07;;;-4.40;99.90;;;;;;5083553;28;20118;-63
2024/01/10 08:42:23;;;;;;;27.35;10.52;;;-4.40;99.90;;;;;;5078278;28;20142;-62
2024/01/10 08:44:49;;;;;;;24.42;10.30;;;-4.40;99.90;;;;;;5085905;28;20523;-62
2024/01/10 08:47:15;;;;;;;24.35;9.75;;;-4.30;99.90;;;;;;5083545;28;20056;-61
2024/01/10 08:49:41;;;;;;;24.75;10.45;;;-4.50;99.90;;;;;;5066207;28;20097;-62
2024/01/10 08:52:08;;;;;;;22.25;9.85;;;-3.00;99.90;;;;;;5078316;28;20043;-62
2024/01/10 08:54:33;;;;;;;28.10;10.80;;;-4.30;99.90;;;;;;5083491;28;20044;-62
2024/01/10 08:57:00;;;;;;;26.25;10.48;;;-4.20;99.90;;;;;;5083365;28;20097;-61
2024/01/10 08:59:27;;;;;;;28.90;11.65;;;-3.90;99.90;;;;;;5082781;28;20055;-62
2024/01/10 09:01:53;;;;;;;24.05;10.57;;;-4.10;99.90;;;;;;5072692;28;21132;-62
2024/01/10 09:04:19;;;;;;;27.15;12.25;;;-4.10;99.90;;;;;;5083674;28;20130;-62
2024/01/10 09:06:46;;;;;;;25.15;12.07;;;-3.80;99.90;;;;;;5090980;28;20050;-62
2024/01/10 09:09:13;;;;;;;25.80;12.32;;;-3.70;99.90;;;;;;5089576;28;20040;-61
2024/01/10 09:11:39;;;;;;;25.83;12.02;;;-3.70;99.90;;;;;;5089088;28;20047;-61
2024/01/10 09:14:05;;;;;;;29.13;12.45;;;-4.00;99.90;;;;;;5089124;28;20035;-62
2024/01/10 09:16:31;;;;;;;27.70;13.48;;;-3.40;99.90;;;;;;5085291;28;20503;-62
2024/01/10 09:18:57;;;;;;;30.35;14.57;;;-3.40;99.90;;;;;;5088502;28;20051;-62
2024/01/10 09:21:24;;;;;;;33.95;14.70;;;-3.90;99.90;;;;;;5092276;28;20055;-62
2024/01/10 09:23:51;;;;;;;30.55;14.27;;;-3.20;99.90;;;;;;5084947;28;20122;-62
2024/01/10 09:26:18;;;;;;;34.22;15.05;;;-4.30;99.90;;;;;;5042762;28;20043;-62
2024/01/10 09:28:44;;;;;;;34.22;15.13;;;-3.90;99.90;;;;;;5084266;28;20047;-61
2024/01/10 09:31:09;;;;;;;35.33;14.27;;;-2.90;99.90;;;;;;5074444;27;20062;-62
2024/01/10 09:33:35;;;;;;;33.60;14.40;;;-3.80;99.90;;;;;;5085217;27;20047;-62
2024/01/10 09:36:01;;;;;;;29.38;12.70;;;-3.80;99.90;;;;;;5069087;27;20047;-63
2024/01/10 09:38:27;;;;;;;32.92;13.50;;;-3.80;99.90;;;;;;5088113;27;20050;-63
2024/01/10 09:41:01;;;;;;;30.45;12.52;;;-3.70;99.90;;;;;;5088703;28;20048;-63
2024/01/10 09:43:29;;;;;;;30.42;13.40;;;-3.70;99.90;;;;;;5089988;28;20078;-63
2024/01/10 09:45:58;;;;;;;29.70;12.88;;;-3.70;99.90;;;;;;5088405;28;20051;-63
2024/01/10 09:48:25;;;;;;;33.17;14.27;;;-3.70;99.90;;;;;;5092971;27;20130;-62
2024/01/10 09:50:52;;;;;;;35.72;13.52;;;-3.60;99.90;;;;;;5071970;28;20048;-63
2024/01/10 09:53:26;;;;;;;34.35;13.65;;;-3.60;99.90;;;;;;5081114;28;20422;-62
2024/01/10 09:55:56;;;;;;;29.65;11.65;;;-3.60;99.90;;;;;;5085049;28;20052;-63
2024/01/10 09:58:26;;;;;;;32.35;12.32;;;-3.60;99.90;;;;;;5065487;28;20090;-64
2024/01/10 10:00:52;;;;;;;31.02;13.07;;;-3.50;99.90;;;;;;5084040;28;20166;-63
2024/01/10 10:03:19;;;;;;;30.40;12.77;;;-3.50;99.90;;;;;;5079814;28;20467;-63
2024/01/10 10:05:45;;;;;;;34.45;13.13;;;-3.50;99.90;;;;;;5092252;28;20109;-62
2024/01/10 10:08:14;;;;;;;30.58;11.80;;;-3.50;99.90;;;;;;5085933;28;20260;-62
2024/01/10 10:10:44;;;;;;;30.73;12.27;;;-3.40;99.90;;;;;;5091520;28;20105;-62
2024/01/10 10:13:23;;;;;;;31.35;13.27;;;-3.40;99.90;;;;;;5090351;28;20050;-63
2024/01/10 10:15:58;;;;;;;28.02;11.77;;;-3.30;99.90;;;;;;5093134;27;20054;-62
2024/01/10 10:18:24;;;;;;;29.15;11.60;;;-3.30;99.90;;;;;;5084001;28;20055;-62
2024/01/10 10:21:06;;;;;;;27.13;11.38;;;-3.30;99.90;;;;;;5087076;28;20539;-62
2024/01/10 10:23:32;;;;;;;30.35;11.95;;;-3.10;99.90;;;;;;5082540;27;20183;-63
2024/01/10 10:25:57;;;;;;;30.15;11.43;;;-3.20;99.90;;;;;;5073905;28;20044;-62
2024/01/10 10:28:28;;;;;;;28.60;10.55;;;-3.10;99.90;;;;;;5079189;28;20134;-62
2024/01/10 10:30:54;;;;;;;26.52;10.82;;;-3.10;99.90;;;;;;5089813;28;20479;-62
2024/01/10 10:33:21;;;;;;;25.52;10.93;;;-3.10;99.90;;;;;;5089244;28;20075;-64
2024/01/10 10:35:50;;;;;;;30.10;11.65;;;-3.00;99.90;;;;;;5101204;27;20146;-63
2024/01/10 10:38:16;;;;;;;25.52;10.32;;;-3.00;99.90;;;;;;5084488;27;20822;-63
2024/01/10 10:40:43;;;;;;;29.45;10.88;;;-2.20;99.90;;;;;;5083986;27;20047;-65
2024/01/10 10:43:16;;;;;;;27.35;11.27;;;-2.90;99.90;;;;;;5070156;28;20040;-64
2024/01/10 10:45:48;;;;;;;26.73;11.45;;;-2.90;99.90;;;;;;5058814;28;20043;-63
2024/01/10 10:48:17;;;;;;;26.65;9.98;;;-2.60;99.90;;;;;;5093343;28;20134;-63
2024/01/10 10:51:07;;;;;;;20.13;8.18;;;-2.70;99.90;;;;;;5093385;28;20135;-63
2024/01/10 10:53:35;;;;;;;22.83;9.43;;;-2.80;99.90;;;;;;5089543;28;20040;-63
2024/01/10 10:56:07;;;;;;;21.95;8.05;;;-2.00;99.90;;;;;;5083296;28;20043;-63
2024/01/10 10:58:44;;;;;;;19.83;8.30;;;-2.70;99.90;;;;;;5088052;28;20922;-63
2024/01/10 11:01:12;;;;;;;24.60;9.80;;;-2.00;99.90;;;;;;5081791;28;20120;-63
2024/01/10 11:03:42;;;;;;;21.67;8.23;;;-2.60;99.90;;;;;;5086650;27;20050;-63
2024/01/10 11:06:09;;;;;;;18.10;6.68;;;-2.50;99.90;;;;;;5087653;28;20073;-63
2024/01/10 11:08:53;;;;;;;20.45;8.45;;;-2.80;99.90;;;;;;5075380;28;20048;-63
2024/01/10 11:11:27;;;;;;;19.42;8.15;;;-2.40;99.90;;;;;;5089201;28;20044;-63
2024/01/10 11:14:16;;;;;;;20.52;7.65;;;-2.40;99.90;;;;;;5096325;28;20044;-66
2024/01/10 11:16:58;;;;;;;19.98;8.10;;;-2.40;99.90;;;;;;5088421;28;20051;-63
2024/01/10 11:20:09;;;;;;;23.13;8.13;;;-2.30;99.90;;;;;;5089640;28;20503;-63
2024/01/10 11:22:41;;;;;;;;;;;-2.30;99.90;;;;;;5080658;28;20308;-63
2024/01/10 11:25:07;;;;;;;22.85;8.70;;;-2.20;99.90;;;;;;5097181;28;19946;-63
2024/01/10 11:27:34;;;;;;;19.98;8.23;;;-2.20;99.90;;;;;;5093892;28;20055;-63
2024/01/10 11:30:00;;;;;;;16.58;7.28;;;-2.10;99.90;;;;;;5092109;28;20039;-63
2024/01/10 11:32:27;;;;;;;18.05;7.40;;;-2.20;99.90;;;;;;5094932;28;20329;-63
2024/01/10 11:35:11;;;;;;;19.05;7.07;;;-2.10;99.90;;;;;;5090460;28;20032;-65
2024/01/10 11:37:44;;;;;;;18.73;6.80;;;-2.10;99.90;;;;;;5088893;28;20044;-62
2024/01/10 11:40:12;;;;;;;18.33;7.32;;;-2.10;99.90;;;;;;5121056;27;20043;-63
2024/01/10 11:42:48;;;;;;;16.25;7.43;;;-2.00;99.90;;;;;;5081533;28;20381;-63
2024/01/10 11:45:35;;;;;;;19.85;7.53;;;-2.00;99.90;;;;;;5093657;28;20172;-63
2024/01/10 11:48:01;;;;;;;20.70;7.72;;;-1.70;99.90;;;;;;5093933;28;20043;-63
2024/01/10 11:50:27;;;;;;;18.23;7.28;;;-1.90;99.90;;;;;;5084716;27;20054;-63
2024/01/10 11:52:54;;;;;;;16.48;6.72;;;-1.90;99.90;;;;;;5094765;28;20576;-63
2024/01/10 11:55:47;;;;;;;16.27;7.22;;;-1.90;99.90;;;;;;5068944;28;20048;-63
2024/01/10 11:58:14;;;;;;;17.00;6.32;;;-1.90;99.90;;;;;;5076847;28;20059;-63
2024/01/10 12:00:43;;;;;;;17.58;7.88;;;-1.30;99.90;;;;;;5075772;28;20055;-63
2024/01/10 12:03:14;;;;;;;17.42;7.53;;;-1.30;99.90;;;;;;5084206;28;20051;-63
2024/01/10 12:05:40;;;;;;;16.20;8.10;;;-1.70;99.90;;;;;;5094013;28;20047;-63
2024/01/10 12:08:09;;;;;;;15.32;6.78;;;-1.70;99.90;;;;;;5094362;28;20040;-63
2024/01/10 12:10:39;;;;;;;15.20;6.70;;;-1.70;99.90;;;;;;5096743;28;20047;-63
2024/01/10 12:13:04;;;;;;;19.92;7.55;;;-0.80;99.90;;;;;;5079538;28;20050;-64
2024/01/10 12:15:31;;;;;;;17.02;7.18;;;-1.20;99.90;;;;;;5088905;28;20044;-63
2024/01/10 12:17:56;;;;;;;18.40;7.50;;;-1.60;99.90;;;;;;5120457;27;20473;-63
2024/01/10 12:20:22;;;;;;;19.42;7.57;;;-1.60;99.90;;;;;;5085390;28;20153;-63
2024/01/10 12:22:48;;;;;;;18.35;7.88;;;-1.60;99.90;;;;;;5096164;28;20067;-63
2024/01/10 12:25:14;;;;;;;17.00;7.80;;;-1.50;99.90;;;;;;5094675;28;20039;-63
2024/01/10 12:27:40;;;;;;;17.45;7.72;;;-0.30;99.90;;;;;;5096488;28;20039;-63